Time;durP1;ratioP1;P1;durP2;ratioP2;P2;SDS_P1;SDS_P2;PMS_P1;PMS_P2;Temp;Humidity;BMP_temperature;BMP_pressure;BME280_temperature;BME280_humidity;BME280_pressure;Samples;Min_cycle;Max_cycle;Signal;HPM_P1;HPM_P2
2024/02/08 00:01:59;;;;;;;13.00;8.70;;;;;;;1.37;80.81;96033.37;104679;1262;98509;-84
2024/02/08 00:04:26;;;;;;;15.90;13.40;;;;;;;1.34;80.90;96033.33;104705;1257;103641;-84
2024/02/08 00:06:54;;;;;;;16.30;12.70;;;;;;;1.34;80.87;96035.66;104722;1260;100314;-84
2024/02/08 00:09:22;;;;;;;18.80;13.10;;;;;;;1.35;80.92;96038.94;104620;1262;108599;-84
2024/02/08 00:11:50;;;;;;;15.00;10.50;;;;;;;1.35;80.95;96041.77;104703;1261;99180;-84
2024/02/08 00:14:17;;;;;;;14.60;11.40;;;;;;;1.35;81.04;96040.20;104674;1261;98433;-79
2024/02/08 00:16:45;;;;;;;14.90;11.60;;;;;;;1.33;81.04;96037.50;104673;1262;103160;-80
2024/02/08 00:19:15;;;;;;;14.30;10.70;;;;;;;1.31;81.09;96034.46;104617;1261;100358;-80
2024/02/08 00:21:44;;;;;;;13.50;9.60;;;;;;;1.29;81.16;96034.06;104620;1261;99979;-79
2024/02/08 00:24:12;;;;;;;12.80;9.60;;;;;;;1.29;81.23;96032.46;104560;1257;98017;-79
2024/02/08 00:26:41;;;;;;;15.40;10.70;;;;;;;1.29;81.15;96036.11;104613;1261;98326;-80
2024/02/08 00:29:09;;;;;;;13.70;11.30;;;;;;;1.28;81.23;96035.36;104680;1261;103659;-80
2024/02/08 00:31:38;;;;;;;16.00;12.60;;;;;;;1.27;81.33;96035.67;104646;1257;101380;-80
2024/02/08 00:34:05;;;;;;;16.90;13.60;;;;;;;1.27;81.27;96037.48;104673;1261;99234;-79
2024/02/08 00:36:33;;;;;;;18.30;12.40;;;;;;;1.25;81.30;96039.98;104591;1270;98014;-79
2024/02/08 00:39:06;;;;;;;15.30;11.70;;;;;;;1.24;81.40;96042.18;104619;1256;98368;-79
2024/02/08 00:41:36;;;;;;;14.80;11.10;;;;;;;1.24;81.46;96043.84;104652;1260;103591;-79
2024/02/08 00:44:04;;;;;;;11.60;9.50;;;;;;;1.22;81.47;96049.52;104724;1261;101480;-79
2024/02/08 00:46:31;;;;;;;12.20;9.70;;;;;;;1.20;81.50;96048.27;104621;1263;99128;-79
2024/02/08 00:48:59;;;;;;;13.80;10.70;;;;;;;1.20;81.63;96047.34;104578;1260;97960;-80
2024/02/08 00:51:27;;;;;;;15.40;11.90;;;;;;;1.21;81.66;96045.15;104577;1261;97878;-79
2024/02/08 00:53:56;;;;;;;14.30;11.80;;;;;;;1.21;81.62;96045.45;104578;1263;103769;-79
2024/02/08 00:56:24;;;;;;;14.80;11.00;;;;;;;1.18;81.59;96043.67;104640;1257;101682;-80
2024/02/08 00:58:51;;;;;;;11.30;9.50;;;;;;;1.17;81.69;96045.25;104603;1262;100165;-80
2024/02/08 01:01:19;;;;;;;8.60;6.70;;;;;;;1.20;81.80;96048.64;104579;1256;98171;-76
2024/02/08 01:03:47;;;;;;;14.90;10.30;;;;;;;1.25;81.85;96047.63;104577;1260;98406;-76
2024/02/08 01:06:15;;;;;;;14.60;10.20;;;;;;;1.28;81.80;96043.01;104672;1262;103675;-76
2024/02/08 01:08:42;;;;;;;15.70;10.60;;;;;;;1.28;81.80;96041.45;104596;1272;101580;-76
2024/02/08 01:11:10;;;;;;;12.40;9.20;;;;;;;1.24;81.78;96040.66;104612;1261;99912;-76
2024/02/08 01:13:38;;;;;;;11.70;9.40;;;;;;;1.20;81.79;96044.67;104595;1256;98022;-76
2024/02/08 01:16:06;;;;;;;12.30;9.80;;;;;;;1.21;81.92;96042.77;104636;1257;98457;-76
2024/02/08 01:18:34;;;;;;;13.60;9.70;;;;;;;1.23;82.01;96039.58;104616;1261;103369;-76
2024/02/08 01:21:02;;;;;;;14.50;10.80;;;;;;;1.23;81.85;96040.07;104708;1260;100469;-76
2024/02/08 01:23:29;;;;;;;21.40;14.80;;;;;;;1.23;81.98;96036.52;104591;1259;99672;-76
2024/02/08 01:25:57;;;;;;;20.20;14.70;;;;;;;1.23;82.01;96034.35;104596;1256;97906;-76
2024/02/08 01:28:26;;;;;;;24.40;15.80;;;;;;;1.24;81.97;96030.06;104624;1261;98371;-76
2024/02/08 01:30:54;;;;;;;25.90;18.40;;;;;;;1.24;81.98;96027.94;104609;1256;103522;-76
2024/02/08 01:33:22;;;;;;;26.80;19.20;;;;;;;1.23;81.96;96027.61;104634;1277;101520;-76
2024/02/08 01:35:51;;;;;;;28.50;19.00;;;;;;;1.22;82.02;96026.20;104599;1260;99920;-76
2024/02/08 01:38:19;;;;;;;30.90;20.60;;;;;;;1.21;82.07;96026.33;104670;1265;97962;-76
2024/02/08 01:40:47;;;;;;;29.20;19.50;;;;;;;1.20;82.11;96022.77;104696;1256;99115;-76
2024/02/08 01:43:14;;;;;;;27.70;18.50;;;;;;;1.18;82.14;96022.69;104663;1270;103743;-76
2024/02/08 01:45:42;;;;;;;23.50;16.70;;;;;;;1.17;82.16;96025.82;104672;1270;101537;-76
2024/02/08 01:48:12;;;;;;;24.10;17.40;;;;;;;1.16;82.23;96017.19;104683;1260;99957;-76
2024/02/08 01:50:44;;;;;;;25.50;17.40;;;;;;;1.15;82.28;96019.05;104658;1263;99226;-76
2024/02/08 01:53:18;;;;;;;27.20;18.20;;;;;;;1.15;82.34;96015.54;104665;1261;98829;-76
2024/02/08 01:55:49;;;;;;;24.50;18.40;;;;;;;1.15;82.33;96011.48;104658;1261;103932;-76
2024/02/08 01:58:20;;;;;;;26.10;17.90;;;;;;;1.17;82.40;96008.24;104682;1263;101555;-76
2024/02/08 02:00:52;;;;;;;24.00;17.30;;;;;;;1.18;82.43;96007.89;104585;1260;100066;-76
2024/02/08 02:03:20;;;;;;;26.10;18.90;;;;;;;1.17;82.37;96009.56;104618;1264;97918;-76
2024/02/08 02:05:49;;;;;;;25.80;17.90;;;;;;;1.17;82.33;96010.66;104742;1260;98456;-76
2024/02/08 02:08:19;;;;;;;25.60;16.70;;;;;;;1.17;82.42;96008.61;104622;1256;102568;-76
2024/02/08 02:11:22;;;;;;;22.00;16.20;;;;;;;1.17;82.50;96003.13;104665;1260;100354;-76
2024/02/08 02:13:52;;;;;;;22.30;16.30;;;;;;;1.15;82.52;96004.88;104608;1270;100191;-76
2024/02/08 02:16:23;;;;;;;27.60;15.90;;;;;;;1.15;82.56;96004.41;104753;1257;97949;-76
2024/02/08 02:18:51;;;;;;;21.20;14.70;;;;;;;1.15;82.53;96000.65;104704;1261;99189;-76
2024/02/08 02:21:23;;;;;;;19.90;14.30;;;;;;;1.15;82.56;96003.71;104780;1261;103476;-76
2024/02/08 02:23:52;;;;;;;27.10;16.60;;;;;;;1.16;82.68;96000.05;104693;1272;101017;-76
2024/02/08 02:26:20;;;;;;;21.50;15.60;;;;;;;1.16;82.69;95998.98;104794;1261;99966;-76
2024/02/08 02:28:49;;;;;;;25.20;15.50;;;;;;;1.15;82.68;96000.29;104701;1261;97973;-76
2024/02/08 02:31:17;;;;;;;28.40;17.50;;;;;;;1.14;82.78;96001.83;104625;1273;99586;-85
2024/02/08 02:33:46;;;;;;;31.30;20.00;;;;;;;1.13;82.74;96002.54;104762;1259;103716;-85
2024/02/08 02:36:14;;;;;;;30.70;16.10;;;;;;;1.14;82.84;96001.86;104679;1263;101044;-85
2024/02/08 02:38:43;;;;;;;20.50;13.30;;;;;;;1.14;82.73;96006.77;104651;1261;99879;-86
2024/02/08 02:41:10;;;;;;;17.90;10.30;;;;;;;1.15;82.77;96007.16;104608;1260;97902;-86
2024/02/08 02:43:39;;;;;;;12.80;8.60;;;;;;;1.19;82.84;96005.36;104634;1261;98428;-86
2024/02/08 02:46:07;;;;;;;11.40;8.90;;;;;;;1.23;82.83;96005.89;104768;1257;103809;-85
2024/02/08 02:48:40;;;;;;;12.40;9.30;;;;;;;1.25;82.84;96004.96;104644;1260;101526;-86
2024/02/08 02:51:11;;;;;;;15.60;10.70;;;;;;;1.23;82.77;96004.98;104769;1261;99735;-86
2024/02/08 02:53:42;;;;;;;12.60;9.80;;;;;;;1.20;82.74;96003.34;104561;1261;97974;-86
2024/02/08 02:56:11;;;;;;;14.80;10.00;;;;;;;1.19;82.81;96005.14;104666;1258;98421;-86
2024/02/08 02:58:39;;;;;;;21.10;10.60;;;;;;;1.21;82.97;96005.47;104703;1260;103736;-85
2024/02/08 03:01:07;;;;;;;17.50;11.20;;;;;;;1.24;82.92;96004.48;104631;1257;101267;-76
2024/02/08 03:03:53;;;;;;;15.80;10.60;;;;;;;1.25;82.83;95998.11;104635;1262;100270;-76
2024/02/08 03:06:21;;;;;;;15.60;11.00;;;;;;;1.21;82.83;95999.33;104846;1260;97989;-76
2024/02/08 03:08:49;;;;;;;16.70;10.10;;;;;;;1.18;82.78;95995.33;104654;1261;98469;-76
2024/02/08 03:11:17;;;;;;;17.40;9.90;;;;;;;1.16;82.89;95994.53;104678;1257;103383;-76
2024/02/08 03:13:46;;;;;;;13.70;9.30;;;;;;;1.15;82.87;95995.58;104637;1257;101538;-76
2024/02/08 03:16:14;;;;;;;13.00;9.10;;;;;;;1.14;82.81;95994.09;104788;1275;99934;-79
2024/02/08 03:18:43;;;;;;;14.00;9.50;;;;;;;1.12;82.93;95991.95;104700;1262;97982;-79
2024/02/08 03:21:17;;;;;;;13.20;9.70;;;;;;;1.11;82.94;95989.77;104660;1261;97886;-79
2024/02/08 03:23:48;;;;;;;13.10;9.80;;;;;;;1.10;82.99;95992.73;104618;1256;103581;-79
2024/02/08 03:26:17;;;;;;;15.30;9.60;;;;;;;1.09;83.01;95994.54;104669;1263;101328;-79
2024/02/08 03:28:46;;;;;;;14.60;10.60;;;;;;;1.09;83.04;95993.35;104594;1260;99969;-79
2024/02/08 03:31:14;;;;;;;14.10;9.60;;;;;;;1.08;83.07;95997.15;104527;1261;98118;-78
2024/02/08 03:33:43;;;;;;;13.80;9.50;;;;;;;1.08;83.13;95995.64;104670;1269;98329;-79
2024/02/08 03:36:12;;;;;;;12.60;9.10;;;;;;;1.08;83.18;95993.84;104714;1260;103606;-78
2024/02/08 03:38:40;;;;;;;14.00;9.10;;;;;;;1.08;83.13;95994.54;104673;1260;100366;-78
2024/02/08 03:41:07;;;;;;;11.40;8.50;;;;;;;1.07;83.11;95995.58;104602;1257;100070;-78
2024/02/08 03:43:35;;;;;;;11.80;9.00;;;;;;;1.06;83.11;95994.20;104653;1260;97995;-78
2024/02/08 03:46:04;;;;;;;11.20;8.10;;;;;;;1.09;83.14;95999.39;104643;1261;98367;-78
2024/02/08 03:48:33;;;;;;;10.50;8.50;;;;;;;1.11;83.30;95996.39;104599;1261;102321;-78
2024/02/08 03:51:00;;;;;;;13.40;8.00;;;;;;;1.12;83.27;95993.08;104580;1260;101374;-78
2024/02/08 03:53:29;;;;;;;11.70;8.30;;;;;;;1.12;83.17;95997.17;104588;1261;106933;-78
2024/02/08 03:55:56;;;;;;;10.10;7.50;;;;;;;1.12;83.28;96001.62;104666;1261;98849;-78
2024/02/08 03:58:24;;;;;;;12.90;8.30;;;;;;;1.12;83.24;96001.35;104706;1256;98424;-78
2024/02/08 04:00:53;;;;;;;12.80;8.10;;;;;;;1.13;83.30;96006.09;104657;1262;104162;-86
2024/02/08 04:03:43;;;;;;;9.40;7.50;;;;;;;1.12;83.28;96007.02;104638;1261;101114;-85
2024/02/08 04:06:26;;;;;;;14.40;8.50;;;;;;;1.11;83.15;96009.48;104707;1261;100127;-75
2024/02/08 04:09:08;;;;;;;12.70;9.00;;;;;;;1.08;83.16;96006.60;104597;1261;99206;-75
2024/02/08 04:53:38;;;;;;;11.70;5.60;;;;;;;1.18;82.93;96012.48;104543;1272;97971;-86
2024/02/08 04:56:10;;;;;;;10.50;5.40;;;;;;;1.17;82.92;96011.73;104681;1260;103632;-86
2024/02/08 04:58:45;;;;;;;8.20;5.10;;;;;;;1.17;82.92;96014.19;104687;1256;101890;-86
2024/02/08 05:01:14;;;;;;;7.50;4.80;;;;;;;1.17;82.90;96016.34;104669;1261;99002;-74
2024/02/08 05:03:43;;;;;;;6.80;4.80;;;;;;;1.17;82.88;96016.91;104684;1278;99357;-74
2024/02/08 05:06:14;;;;;;;8.90;5.10;;;;;;;1.17;82.81;96020.46;104687;1260;98377;-73
2024/02/08 05:08:43;;;;;;;9.80;5.70;;;;;;;1.16;82.84;96022.00;104619;1275;103657;-73
2024/02/08 05:11:14;;;;;;;11.10;6.30;;;;;;;1.14;82.80;96021.70;104643;1257;100318;-73
2024/02/08 05:13:49;;;;;;;17.60;12.60;;;;;;;1.13;82.88;96019.52;104614;1269;99990;-73
2024/02/08 05:16:19;;;;;;;28.60;21.50;;;;;;;1.11;82.81;96020.23;104628;1256;98060;-87
2024/02/08 05:18:49;;;;;;;38.30;28.90;;;;;;;1.06;82.75;96023.73;104753;1261;98552;-87
2024/02/08 05:21:18;;;;;;;36.90;30.40;;;;;;;1.01;82.73;96018.64;104619;1262;103720;-87
2024/02/08 05:23:51;;;;;;;20.50;16.00;;;;;;;1.00;82.85;96017.80;104772;1270;101372;-87
2024/02/08 05:26:19;;;;;;;18.90;14.60;;;;;;;1.00;82.89;96015.73;104653;1256;99967;-87
2024/02/08 05:28:48;;;;;;;15.30;12.00;;;;;;;0.99;82.80;96017.95;104717;1259;99160;-87
2024/02/08 05:31:17;;;;;;;11.90;9.10;;;;;;;0.99;82.86;96021.63;104749;1257;98945;-87
2024/02/08 05:33:45;;;;;;;10.30;7.40;;;;;;;1.00;82.94;96024.19;104666;1256;103562;-88
2024/02/08 05:36:17;;;;;;;8.90;6.50;;;;;;;1.03;83.05;96023.20;104703;1257;100414;-88
2024/02/08 05:38:45;;;;;;;8.40;5.80;;;;;;;1.03;82.99;96021.73;104771;1262;99964;-86
2024/02/08 05:41:16;;;;;;;11.90;7.20;;;;;;;1.02;82.91;96020.48;104800;1256;99129;-88
2024/02/08 05:43:45;;;;;;;58.00;35.60;;;;;;;1.03;82.97;96025.45;104825;1272;98418;-89
2024/02/08 05:46:19;;;;;;;41.30;29.30;;;;;;;1.06;82.95;96026.19;104800;1258;103693;-73
2024/02/08 05:48:51;;;;;;;92.50;65.20;;;;;;;1.09;82.97;96026.21;104636;1263;101356;-74
2024/02/08 05:51:20;;;;;;;95.00;63.30;;;;;;;1.08;82.91;96029.44;104611;1261;100107;-74
2024/02/08 05:53:49;;;;;;;84.10;56.40;;;;;;;1.04;82.87;96027.27;104641;1261;98006;-74
2024/02/08 05:56:21;;;;;;;46.00;33.10;;;;;;;1.00;82.86;96027.45;104646;1263;99155;-74
2024/02/08 05:58:51;;;;;;;19.20;15.70;;;;;;;0.99;83.00;96029.44;104635;1261;103200;-74
2024/02/08 06:01:23;;;;;;;16.60;13.20;;;;;;;1.03;83.05;96031.17;104785;1256;101508;-89
2024/02/08 06:03:55;;;;;;;15.50;11.90;;;;;;;1.04;83.06;96034.42;105219;1261;100006;-89
2024/02/08 06:06:33;;;;;;;18.70;12.80;;;;;;;1.03;83.05;96038.24;105194;1273;97934;-88
2024/02/08 06:09:08;;;;;;;19.80;13.50;;;;;;;1.03;83.10;96041.36;105286;1256;98761;-88
2024/02/08 06:11:38;;;;;;;18.00;13.40;;;;;;;1.04;83.17;96039.36;105236;1256;103785;-89
2024/02/08 06:14:17;;;;;;;16.20;12.40;;;;;;;1.02;83.07;96036.39;105324;1256;100281;-89
2024/02/08 06:16:46;;;;;;;15.60;11.50;;;;;;;1.02;83.08;96038.39;105199;1262;100028;-89
2024/02/08 06:19:17;;;;;;;13.70;9.70;;;;;;;1.04;83.06;96040.16;105081;1262;99118;-88
2024/02/08 06:21:45;;;;;;;11.70;9.70;;;;;;;1.04;83.03;96040.06;105009;1261;98408;-88
2024/02/08 06:27:02;;;;;;;14.10;8.60;;;;;;;1.03;83.05;96042.86;104775;1256;101545;-87
2024/02/08 06:29:46;;;;;;;14.20;9.80;;;;;;;1.01;83.02;96048.52;104761;1262;100063;-88
2024/02/08 06:32:33;;;;;;;18.10;13.10;;;;;;;1.00;83.13;96048.83;104641;1257;97980;-77
2024/02/08 06:35:11;;;;;;;22.30;17.80;;;;;;;0.96;83.10;96045.20;104433;1264;99797;-77
2024/02/08 06:37:44;;;;;;;22.20;16.80;;;;;;;0.94;83.20;96046.80;104628;1267;103857;-78
2024/02/08 06:40:21;;;;;;;27.40;21.60;;;;;;;0.94;83.25;96043.95;104833;1260;101598;-78
2024/02/08 06:45:53;;;;;;;27.60;20.00;;;;;;;0.93;83.23;96040.54;104739;1261;97957;-78
2024/02/08 06:48:36;;;;;;;22.10;16.20;;;;;;;0.95;83.38;96039.91;104647;1262;98444;-77
2024/02/08 07:38:01;;;;;;;34.70;23.10;;;;;;;1.07;83.70;96033.15;104690;1260;100118;-78
2024/02/08 07:40:34;;;;;;;37.90;23.90;;;;;;;1.08;83.72;96030.55;104682;1271;97935;-78
2024/02/08 07:43:19;;;;;;;40.90;27.80;;;;;;;1.08;83.76;96029.73;104716;1260;98352;-78
2024/02/08 07:45:54;;;;;;;43.40;27.50;;;;;;;1.08;83.77;96027.82;104677;1263;103747;-80
2024/02/08 07:51:05;;;;;;;46.60;29.10;;;;;;;1.14;83.84;96025.41;104633;1260;99955;-81
2024/02/08 07:53:44;;;;;;;48.70;30.30;;;;;;;1.17;83.67;96027.30;104676;1259;98509;-81
2024/02/08 07:56:29;;;;;;;74.90;45.00;;;;;;;1.22;83.71;96024.40;104635;1261;98728;-80
2024/02/08 07:59:03;;;;;;;76.80;44.00;;;;;;;1.28;83.77;96023.13;104698;1262;102642;-80
2024/02/08 08:01:39;;;;;;;79.20;45.60;;;;;;;1.33;83.71;96022.94;104597;1262;101495;-80
2024/02/08 08:04:09;;;;;;;59.10;36.50;;;;;;;1.37;83.70;96023.84;104678;1267;99951;-80
2024/02/08 08:06:46;;;;;;;53.80;33.50;;;;;;;1.41;83.65;96024.02;104591;1257;98759;-80
2024/02/08 08:09:21;;;;;;;52.60;32.20;;;;;;;1.44;83.65;96025.31;104610;1256;98393;-79
2024/02/08 08:11:51;;;;;;;64.30;40.80;;;;;;;1.47;83.61;96020.18;104627;1270;103620;-79
2024/02/08 08:17:16;;;;;;;54.10;34.70;;;;;;;1.56;83.56;96015.05;104594;1267;98812;-87
2024/02/08 08:19:45;;;;;;;53.10;33.90;;;;;;;1.58;83.39;96015.30;104611;1262;98029;-87
2024/02/08 08:22:50;;;;;;;54.20;32.60;;;;;;;1.61;83.36;96016.36;104654;1270;98450;-86
2024/02/08 08:25:28;;;;;;;45.30;31.10;;;;;;;1.64;83.31;96015.42;104770;1261;103632;-87
2024/02/08 08:28:29;;;;;;;42.90;28.00;;;;;;;1.66;83.29;96017.29;104702;1261;101786;-88
2024/02/08 08:31:13;;;;;;;43.60;28.10;;;;;;;1.71;83.28;96015.11;104630;1273;99967;-88
2024/02/08 08:36:34;;;;;;;51.60;31.40;;;;;;;1.74;83.20;96011.73;104630;1270;98462;-87
2024/02/08 08:41:49;;;;;;;52.80;31.60;;;;;;;1.72;83.17;96006.61;104709;1270;101407;-87
2024/02/08 08:44:18;;;;;;;48.20;30.00;;;;;;;1.74;83.15;96007.45;104635;1257;100478;-88
2024/02/08 08:46:46;;;;;;;44.90;28.30;;;;;;;1.78;83.09;96003.73;104715;1262;98113;-75
2024/02/08 08:49:20;;;;;;;48.60;30.50;;;;;;;1.81;83.07;95999.13;104631;1274;98443;-75
2024/02/08 08:51:58;;;;;;;44.20;29.20;;;;;;;1.85;83.04;95994.03;104668;1256;103639;-75
2024/02/08 08:54:29;;;;;;;44.20;29.80;;;;;;;1.89;82.95;95988.80;104682;1262;101226;-87
2024/02/08 08:56:57;;;;;;;45.20;29.40;;;;;;;1.93;83.03;95985.10;104621;1263;99142;-86
2024/02/08 08:59:26;;;;;;;50.70;31.60;;;;;;;1.97;82.93;95981.97;104637;1257;97939;-87
2024/02/08 09:02:00;;;;;;;50.80;31.60;;;;;;;1.97;82.85;95981.36;104731;1273;97871;-87
2024/02/08 09:04:32;;;;;;;56.20;34.20;;;;;;;1.98;82.84;95977.36;104713;1261;103785;-86
2024/02/08 09:07:10;;;;;;;49.40;33.30;;;;;;;1.98;82.80;95975.93;104605;1270;108359;-87
2024/02/08 09:10:00;;;;;;;52.80;33.40;;;;;;;1.96;82.80;95975.09;104596;1258;99862;-86
2024/02/08 09:12:30;;;;;;;53.90;32.40;;;;;;;1.94;82.86;95983.35;104547;1265;99247;-86
2024/02/08 09:15:19;;;;;;;53.50;33.50;;;;;;;1.93;82.90;95989.41;104717;1262;98563;-86
2024/02/08 09:17:57;;;;;;;55.30;33.20;;;;;;;1.91;82.96;95990.54;104589;1262;103410;-85
2024/02/08 09:20:28;;;;;;;55.80;32.70;;;;;;;1.91;83.01;95980.42;104690;1271;101432;-86
2024/02/08 09:22:57;;;;;;;51.90;32.30;;;;;;;1.94;83.04;95980.15;104703;1256;100011;-86
2024/02/08 09:25:25;;;;;;;50.00;32.20;;;;;;;1.97;83.05;95978.16;104680;1271;97913;-86
2024/02/08 09:28:18;;;;;;;51.10;31.10;;;;;;;2.01;83.07;95975.42;104637;1262;98462;-86
2024/02/08 09:30:52;;;;;;;48.50;30.00;;;;;;;2.07;83.10;95973.70;104675;1262;103835;-78
2024/02/08 09:33:44;;;;;;;46.40;28.50;;;;;;;2.10;82.97;95978.20;104701;1262;101228;-78
2024/02/08 09:36:14;;;;;;;44.70;25.40;;;;;;;2.10;82.91;95976.91;104567;1273;99028;-78
2024/02/08 09:38:50;;;;;;;42.80;25.60;;;;;;;2.09;82.83;95976.86;104700;1259;97891;-78
2024/02/08 09:41:23;;;;;;;43.70;27.80;;;;;;;2.07;82.74;95983.29;104686;1256;98437;-78
2024/02/08 09:43:56;;;;;;;47.50;29.70;;;;;;;2.09;82.70;95985.23;104617;1279;103614;-79
2024/02/08 09:49:13;;;;;;;43.90;27.90;;;;;;;2.09;82.88;95979.95;104609;1257;100052;-78
2024/02/08 09:51:51;;;;;;;38.60;25.50;;;;;;;2.10;82.74;95978.11;104606;1273;99240;-79
2024/02/08 09:54:31;;;;;;;44.00;27.20;;;;;;;2.10;82.68;95975.98;104602;1273;99126;-78
2024/02/08 09:57:20;;;;;;;44.10;26.70;;;;;;;2.11;82.84;95980.46;104687;1263;103579;-78
2024/02/08 10:00:10;;;;;;;42.60;25.10;;;;;;;2.13;82.96;95975.03;104593;1261;100353;-78
2024/02/08 10:02:53;;;;;;;35.80;21.80;;;;;;;2.15;82.84;95974.93;104612;1262;100094;-78
2024/02/08 10:05:48;;;;;;;32.70;20.00;;;;;;;2.17;82.72;95974.48;104642;1271;97920;-79
2024/02/08 10:08:18;;;;;;;25.60;17.20;;;;;;;2.18;82.65;95965.59;104672;1261;98869;-78
2024/02/08 10:10:56;;;;;;;30.60;21.30;;;;;;;2.20;82.66;95955.20;104643;1260;102576;-78
2024/02/08 10:13:30;;;;;;;36.80;23.50;;;;;;;2.22;82.59;95952.15;104610;1279;101398;-78
2024/02/08 10:16:03;;;;;;;36.20;22.60;;;;;;;2.22;82.52;95946.02;104691;1269;98836;-78
2024/02/08 10:18:37;;;;;;;29.70;21.00;;;;;;;2.25;82.49;95943.41;104670;1270;97999;-78
2024/02/08 10:21:13;;;;;;;29.10;19.30;;;;;;;2.28;82.50;95944.30;104719;1261;97925;-78
2024/02/08 10:24:11;;;;;;;32.30;20.10;;;;;;;2.30;82.43;95938.64;104689;1264;103847;-78
2024/02/08 10:26:40;;;;;;;25.50;17.50;;;;;;;2.31;82.25;95930.13;104585;1263;101431;-78
2024/02/08 10:29:14;;;;;;;28.20;20.80;;;;;;;2.31;82.30;95923.61;104676;1263;99073;-76
2024/02/08 10:31:42;;;;;;;37.00;23.50;;;;;;;2.33;82.53;95911.02;104570;1262;97910;-75
2024/02/08 10:34:09;;;;;;;32.60;21.40;;;;;;;2.38;82.66;95905.68;104645;1262;98328;-75
2024/02/08 10:36:39;;;;;;;25.40;16.80;;;;;;;2.43;82.71;95905.20;104641;1263;103763;-75
2024/02/08 10:39:23;;;;;;;24.40;15.00;;;;;;;2.47;82.46;95902.19;104722;1261;101486;-75
2024/02/08 10:41:58;;;;;;;16.30;11.70;;;;;;;2.49;82.34;95902.21;104613;1257;98586;-75
2024/02/08 10:44:29;;;;;;;19.60;12.30;;;;;;;2.53;82.14;95904.52;104610;1270;98751;-74
2024/02/08 10:46:57;;;;;;;18.90;13.40;;;;;;;2.58;82.08;95905.19;104692;1267;98462;-82
2024/02/08 10:49:30;;;;;;;22.90;15.10;;;;;;;2.64;82.14;95900.51;104730;1257;103567;-82
2024/02/08 10:52:01;;;;;;;;;;;;;;;2.68;82.05;95895.27;104688;1257;101853;-82
2024/02/08 10:54:42;;;;;;;23.80;15.00;;;;;;;2.70;82.21;95882.17;104643;1262;100028;-81
2024/02/08 10:57:39;;;;;;;23.60;15.10;;;;;;;2.76;82.19;95871.54;104675;1260;97976;-81
2024/02/08 11:03:07;;;;;;;24.20;15.10;;;;;;;2.90;82.05;95863.82;104658;1262;103497;-82
2024/02/08 11:05:48;;;;;;;21.40;15.80;;;;;;;2.95;82.18;95867.98;104667;1272;101527;-82
2024/02/08 11:08:24;;;;;;;23.70;17.10;;;;;;;2.99;82.19;95866.73;104627;1275;100006;-81
2024/02/08 11:10:58;;;;;;;21.80;15.00;;;;;;;3.03;82.15;95866.89;104628;1256;98463;-81
2024/02/08 11:13:30;;;;;;;29.30;19.60;;;;;;;3.06;81.86;95867.48;104656;1263;98447;-81
2024/02/08 11:16:19;;;;;;;35.30;23.00;;;;;;;3.08;81.90;95860.42;104670;1262;103521;-80
2024/02/08 11:18:51;;;;;;;50.30;28.30;;;;;;;3.12;82.03;95860.13;104681;1276;101340;-73
2024/02/08 11:21:24;;;;;;;37.60;23.30;;;;;;;3.16;82.02;95861.30;104687;1257;100065;-74
2024/02/08 11:23:57;;;;;;;40.20;25.10;;;;;;;3.16;81.70;95851.32;104670;1270;98010;-73
2024/02/08 11:26:26;;;;;;;42.40;25.30;;;;;;;3.14;81.40;95845.18;104730;1263;98453;-73
2024/02/08 11:29:18;;;;;;;49.10;28.50;;;;;;;3.14;81.47;95843.62;104705;1272;102356;-73
2024/02/08 11:31:47;;;;;;;50.10;28.80;;;;;;;3.15;81.76;95842.71;104701;1270;101564;-82
2024/02/08 11:34:15;;;;;;;56.00;32.10;;;;;;;3.16;81.69;95832.66;104550;1261;178595;-80
2024/02/08 11:36:43;;;;;;;42.40;25.20;;;;;;;3.16;81.64;95832.70;104693;1261;97936;-81
2024/02/08 11:39:31;;;;;;;44.40;27.90;;;;;;;3.15;81.76;95832.58;104614;1257;98377;-81
2024/02/08 11:42:05;;;;;;;38.10;23.70;;;;;;;3.14;81.78;95835.36;104651;1273;103762;-81
2024/02/08 11:44:37;;;;;;;40.60;23.70;;;;;;;3.12;81.82;95836.58;104607;1262;101239;-81
2024/02/08 11:47:17;;;;;;;38.70;24.20;;;;;;;3.13;81.92;95841.08;104637;1262;100271;-74
2024/02/08 11:50:00;;;;;;;37.50;25.60;;;;;;;3.15;81.98;95846.85;104642;1264;98274;-74
2024/02/08 11:52:29;;;;;;;37.20;22.50;;;;;;;3.15;82.09;95839.14;104598;1265;97997;-74
2024/02/08 11:55:08;;;;;;;38.20;24.20;;;;;;;3.16;82.00;95838.45;104697;1267;103360;-74
2024/02/08 11:57:40;;;;;;;39.70;24.10;;;;;;;3.17;81.87;95834.71;104652;1262;101213;-74
2024/02/08 12:00:18;;;;;;;28.20;20.10;;;;;;;3.18;82.04;95834.84;104603;1261;99672;-74
2024/02/08 12:02:47;;;;;;;29.30;20.20;;;;;;;3.21;82.12;95835.55;104617;1270;99248;-77
2024/02/08 12:05:20;;;;;;;34.30;23.30;;;;;;;3.20;82.10;95828.74;104763;1271;98336;-81
2024/02/08 12:07:48;;;;;;;36.70;24.70;;;;;;;3.17;81.96;95826.10;104713;1256;103575;-80
2024/02/08 12:10:17;;;;;;;38.60;25.20;;;;;;;3.16;82.09;95821.42;104635;1261;101445;-82
2024/02/08 12:12:46;;;;;;;37.10;24.80;;;;;;;3.17;82.15;95815.85;104672;1263;99493;-81
2024/02/08 12:15:14;;;;;;;41.10;25.70;;;;;;;3.18;82.15;95813.02;104633;1260;97833;-81
2024/02/08 12:17:44;;;;;;;42.00;27.40;;;;;;;3.22;82.14;95816.80;104642;1277;98491;-81
2024/02/08 12:20:16;;;;;;;40.00;25.70;;;;;;;3.24;82.08;95815.91;104628;1262;102695;-82
2024/02/08 12:22:45;;;;;;;43.00;27.10;;;;;;;3.23;82.01;95811.98;104636;1257;101501;-81
2024/02/08 12:25:17;;;;;;;40.20;24.50;;;;;;;3.22;82.08;95804.01;104654;1262;99977;-81
2024/02/08 12:27:51;;;;;;;37.40;24.50;;;;;;;3.23;82.07;95796.58;104640;1260;97916;-81
2024/02/08 12:30:25;;;;;;;37.60;25.30;;;;;;;3.24;82.23;95791.92;104671;1279;97867;-81
2024/02/08 12:32:54;;;;;;;44.90;28.00;;;;;;;3.25;82.46;95788.42;104662;1262;103654;-77
2024/02/08 12:35:26;;;;;;;48.80;30.10;;;;;;;3.27;82.50;95789.92;104623;1260;101364;-77
2024/02/08 12:37:58;;;;;;;54.70;36.50;;;;;;;3.29;82.50;95799.36;104626;1270;100020;-77
2024/02/08 12:40:29;;;;;;;;;;;;;;;3.30;82.45;95797.23;104697;1270;99126;-77
2024/02/08 12:42:57;;;;;;;43.70;28.70;;;;;;;3.30;82.55;95786.61;104693;1263;98552;-78
2024/02/08 12:45:28;;;;;;;41.40;25.40;;;;;;;3.31;82.65;95778.93;104707;1271;103809;-80
2024/02/08 12:48:04;;;;;;;36.70;25.40;;;;;;;3.33;82.54;95778.38;104675;1260;101468;-81
2024/02/08 12:50:34;;;;;;;41.90;26.10;;;;;;;3.36;82.52;95771.60;104647;1270;107165;-81
2024/02/08 12:53:05;;;;;;;40.70;26.60;;;;;;;3.38;82.55;95770.41;104643;1262;97922;-81
2024/02/08 12:55:33;;;;;;;47.30;28.10;;;;;;;3.39;82.65;95767.36;104644;1262;97944;-81
2024/02/08 12:58:03;;;;;;;46.90;30.00;;;;;;;3.41;82.63;95757.17;104722;1270;103551;-81
2024/02/08 13:00:33;;;;;;;48.60;31.00;;;;;;;3.44;82.75;95753.33;104696;1263;101382;-81
2024/02/08 13:03:05;;;;;;;46.50;30.50;;;;;;;3.49;82.83;95751.77;104644;1260;100344;-77
2024/02/08 13:05:41;;;;;;;45.30;29.00;;;;;;;3.55;82.85;95754.41;104708;1260;97928;-77
2024/02/08 13:08:10;;;;;;;47.50;31.50;;;;;;;3.58;82.84;95749.61;104681;1260;97908;-77
2024/02/08 13:10:39;;;;;;;49.60;31.60;;;;;;;3.63;82.74;95742.77;104640;1262;103802;-77
2024/02/08 13:13:10;;;;;;;47.50;29.20;;;;;;;3.66;82.73;95745.15;104638;1270;101663;-77
2024/02/08 13:15:41;;;;;;;37.30;26.40;;;;;;;3.68;82.73;95744.00;104650;1259;100005;-78
2024/02/08 13:18:10;;;;;;;35.90;26.30;;;;;;;3.68;82.68;95745.65;104635;1270;98829;-77
2024/02/08 13:20:37;;;;;;;37.40;22.60;;;;;;;3.67;82.66;95740.60;104657;1270;97836;-78
2024/02/08 13:23:06;;;;;;;31.60;20.90;;;;;;;3.67;82.60;95736.66;104595;1256;103522;-78
2024/02/08 13:25:34;;;;;;;35.50;23.00;;;;;;;3.69;82.65;95735.18;104695;1264;101358;-77
2024/02/08 13:28:02;;;;;;;32.80;21.90;;;;;;;3.71;82.66;95735.30;104707;1279;99036;-78
2024/02/08 13:30:30;;;;;;;36.80;22.10;;;;;;;3.69;82.59;95729.02;104617;1270;99284;-78
2024/02/08 13:32:58;;;;;;;39.30;26.30;;;;;;;3.68;82.54;95727.55;104698;1278;97935;-82